createdAt,value
2024-03-06T00:00:09.234Z,100434.13
2024-03-06T00:02:40.095Z,100435.03
2024-03-06T00:05:10.189Z,100434.13
2024-03-06T00:07:38.236Z,100434.25
2024-03-06T00:10:06.832Z,100442.22
2024-03-06T00:12:34.935Z,100437.75
2024-03-06T00:15:03.708Z,100441.28
2024-03-06T00:17:31.804Z,100440.50
2024-03-06T00:20:00.597Z,100444.06
2024-03-06T00:22:28.585Z,100437.84
2024-03-06T00:24:56.815Z,100438.75
2024-03-06T00:27:24.712Z,100437.03
2024-03-06T00:29:52.878Z,100437.03
2024-03-06T00:32:20.880Z,100430.00
2024-03-06T00:34:49.662Z,100440.63
2024-03-06T00:37:17.593Z,100443.28
2024-03-06T00:39:46.911Z,100443.22
2024-03-06T00:42:15.331Z,100435.31
2024-03-06T00:44:44.292Z,100436.16
2024-03-06T00:47:12.331Z,100436.16
2024-03-06T00:49:43.464Z,100439.75
2024-03-06T00:52:11.367Z,100438.03
2024-03-06T00:54:39.660Z,100438.03
2024-03-06T00:57:07.655Z,100440.69
2024-03-06T00:59:35.849Z,100439.81
2024-03-06T01:02:04.037Z,100441.63
2024-03-06T01:04:32.566Z,100442.56
2024-03-06T01:07:00.598Z,100435.44
2024-03-06T01:09:28.835Z,100440.75
2024-03-06T01:11:56.842Z,100439.91
2024-03-06T01:14:25.257Z,100444.34
2024-03-06T01:16:53.212Z,100432.00
2024-03-06T01:19:21.526Z,100432.00
2024-03-06T01:21:49.795Z,100432.00
2024-03-06T01:24:18.046Z,100432.84
2024-03-06T01:26:46.061Z,100433.78
2024-03-06T01:29:14.446Z,100430.25
2024-03-06T01:31:42.637Z,100432.00
2024-03-06T01:34:10.982Z,100430.25
2024-03-06T01:36:39.354Z,100429.41
2024-03-06T01:39:08.096Z,100430.25
2024-03-06T01:41:36.010Z,100427.69
2024-03-06T01:44:05.023Z,100422.38
2024-03-06T01:46:32.941Z,100423.22
2024-03-06T01:49:03.237Z,100433.00
2024-03-06T01:51:32.923Z,100428.59
2024-03-06T01:54:01.854Z,100431.19
2024-03-06T01:56:29.722Z,100441.06
2024-03-06T01:58:58.626Z,100437.44
2024-03-06T02:01:26.935Z,100434.88
2024-03-06T02:03:55.141Z,100441.06
2024-03-06T02:06:23.070Z,100445.50
2024-03-06T02:08:51.334Z,100443.78
2024-03-06T02:11:19.644Z,100444.66
2024-03-06T02:13:47.950Z,100433.22
2024-03-06T02:16:16.609Z,100428.72
2024-03-06T02:18:55.441Z,100435.81
2024-03-06T02:21:24.643Z,100425.25
2024-03-06T02:23:53.346Z,100429.63
2024-03-06T02:26:21.685Z,100420.81
2024-03-06T02:28:51.443Z,100430.56
2024-03-06T02:31:19.948Z,100435.88
2024-03-06T02:33:49.133Z,100435.88
2024-03-06T02:36:18.408Z,100441.19
2024-03-06T02:38:47.079Z,100439.47
2024-03-06T02:41:17.478Z,100440.31
2024-03-06T02:43:45.846Z,100440.38
2024-03-06T02:46:13.807Z,100435.88
2024-03-06T02:48:41.890Z,100432.41
2024-03-06T02:51:09.781Z,100435.06
2024-03-06T02:53:38.250Z,100435.06
2024-03-06T02:56:06.592Z,100433.34
2024-03-06T02:58:36.734Z,100436.00
2024-03-06T03:01:04.826Z,100439.53
2024-03-06T03:03:33.956Z,100446.63
2024-03-06T03:06:02.299Z,100447.56
2024-03-06T03:08:31.654Z,100443.97
2024-03-06T03:10:59.656Z,100446.63
2024-03-06T03:13:27.846Z,100445.84
2024-03-06T03:15:55.788Z,100442.25
2024-03-06T03:18:24.345Z,100444.91
2024-03-06T03:20:52.988Z,100448.50
2024-03-06T03:23:23.720Z,100453.81
2024-03-06T03:25:51.987Z,100455.59
2024-03-06T03:28:20.297Z,100446.75
2024-03-06T03:30:48.232Z,100451.16
2024-03-06T03:33:16.806Z,100444.09
2024-03-06T03:35:44.840Z,100446.75
2024-03-06T03:38:13.110Z,100446.75
2024-03-06T03:40:42.066Z,100437.06
2024-03-06T03:43:10.438Z,100439.72
2024-03-06T03:45:38.245Z,100438.00
2024-03-06T03:48:06.933Z,100444.16
2024-03-06T03:50:35.179Z,100435.34
2024-03-06T03:53:03.549Z,100437.13
2024-03-06T03:55:31.400Z,100438.00
2024-03-06T03:57:59.646Z,100431.81
2024-03-06T04:00:27.614Z,100435.34
2024-03-06T04:02:56.050Z,100441.59
2024-03-06T04:05:25.167Z,100434.53
2024-03-06T04:07:53.519Z,100439.84
2024-03-06T04:10:22.381Z,100446.09
2024-03-06T04:12:51.055Z,100446.03
2024-03-06T04:15:19.103Z,100446.97
2024-03-06T04:17:47.500Z,100454.94
2024-03-06T04:20:17.251Z,100444.38
2024-03-06T04:22:48.021Z,100440.84
2024-03-06T04:25:16.047Z,100452.34
2024-03-06T04:27:44.478Z,100444.38
2024-03-06T04:30:12.686Z,100461.22
2024-03-06T04:32:41.216Z,100461.22
2024-03-06T04:35:10.728Z,100471.84
2024-03-06T04:37:39.305Z,100477.16
2024-03-06T04:40:09.192Z,100481.63
2024-03-06T04:42:37.825Z,100485.22
2024-03-06T04:45:16.349Z,100486.94
2024-03-06T04:47:44.679Z,100487.94
2024-03-06T04:50:13.108Z,100492.22
2024-03-06T04:52:42.168Z,100498.50
2024-03-06T04:55:14.119Z,100500.28
2024-03-06T04:57:45.589Z,100502.94
2024-03-06T05:00:13.917Z,100515.38
2024-03-06T05:58:15.707Z,100550.78
2024-03-06T06:00:45.631Z,100552.66
2024-03-06T06:03:14.222Z,100550.91
2024-03-06T06:05:44.704Z,100557.31
2024-03-06T06:08:13.110Z,100557.31
2024-03-06T06:10:41.283Z,100556.50
2024-03-06T06:13:09.737Z,100563.56
2024-03-06T06:15:37.821Z,100568.09
2024-03-06T06:18:06.522Z,100565.59
2024-03-06T06:20:34.926Z,100571.03
2024-03-06T06:23:03.311Z,100578.34
2024-03-06T06:25:31.499Z,100581.88
2024-03-06T06:28:00.626Z,100582.88
2024-03-06T06:30:28.625Z,100590.97
2024-03-06T06:32:57.193Z,100591.72
2024-03-06T06:35:26.818Z,100594.19
2024-03-06T06:37:55.183Z,100591.59
2024-03-06T06:40:23.237Z,100591.66
2024-03-06T06:42:52.133Z,100590.84
2024-03-06T06:45:20.640Z,100596.91
2024-03-06T06:47:49.589Z,100598.75
2024-03-06T06:50:18.275Z,100596.16
2024-03-06T06:52:46.801Z,100590.84
2024-03-06T06:55:14.816Z,100592.97
2024-03-06T06:57:43.289Z,100585.94
2024-03-06T07:00:14.757Z,100600.28
2024-03-06T07:02:43.542Z,100592.31
2024-03-06T07:05:12.022Z,100597.69
2024-03-06T07:07:41.235Z,100594.22
2024-03-06T07:10:09.899Z,100585.53
2024-03-06T07:12:38.405Z,100589.97
2024-03-06T07:15:07.928Z,100592.63
2024-03-06T07:17:37.080Z,100597.09
2024-03-06T07:20:07.113Z,100589.22
2024-03-06T07:22:35.720Z,100602.41
2024-03-06T07:25:04.048Z,100598.69
2024-03-06T07:27:32.731Z,100598.63
2024-03-06T07:30:00.803Z,100602.28
2024-03-06T07:32:29.308Z,100603.94
2024-03-06T07:34:57.383Z,100609.31
2024-03-06T07:37:25.761Z,100605.78
2024-03-06T07:39:54.326Z,100616.44
2024-03-06T07:42:22.971Z,100616.50
2024-03-06T07:44:51.993Z,100624.47
2024-03-06T07:47:20.459Z,100620.06
2024-03-06T07:49:48.504Z,100621.16
2024-03-06T07:52:16.800Z,100629.28
2024-03-06T07:54:45.133Z,100619.63
2024-03-06T07:57:13.330Z,100633.91
2024-03-06T07:59:41.716Z,100636.56
2024-03-06T08:02:10.206Z,100642.81
2024-03-06T08:04:38.458Z,100647.25
2024-03-06T08:07:06.762Z,100656.09
2024-03-06T08:09:35.127Z,100662.34
2024-03-06T08:12:03.541Z,100660.47
2024-03-06T08:14:31.792Z,100664.06
2024-03-06T08:17:00.180Z,100667.59
2024-03-06T08:19:28.390Z,100672.91
2024-03-06T08:21:56.579Z,100673.78
2024-03-06T08:24:25.559Z,100678.09
2024-03-06T08:26:54.013Z,100683.41
2024-03-06T08:29:22.177Z,100683.41
2024-03-06T08:31:50.905Z,100682.53
2024-03-06T08:34:19.301Z,100686.94
2024-03-06T08:36:48.032Z,100677.16
2024-03-06T08:39:17.680Z,100684.28
2024-03-06T08:41:45.950Z,100690.59
2024-03-06T08:44:14.234Z,100688.78
2024-03-06T08:46:43.228Z,100692.25
2024-03-06T08:49:12.501Z,100699.34
2024-03-06T08:51:40.622Z,100700.28
2024-03-06T08:54:14.252Z,100714.44
2024-03-06T08:56:45.361Z,100704.66
2024-03-06T08:59:13.938Z,100713.56
2024-03-06T09:01:42.034Z,100709.13
2024-03-06T09:04:09.938Z,100710.06
2024-03-06T09:06:39.106Z,100720.75
2024-03-06T09:09:07.165Z,100721.59
2024-03-06T09:11:35.278Z,100723.47
2024-03-06T09:14:05.832Z,100727.03
2024-03-06T09:16:34.175Z,100720.75
2024-03-06T09:19:02.204Z,100728.59
2024-03-06T09:21:30.488Z,100730.25
2024-03-06T09:23:58.413Z,100733.72
2024-03-06T09:26:26.491Z,100740.78
2024-03-06T09:28:54.918Z,100737.19
2024-03-06T09:31:23.011Z,100735.47
2024-03-06T09:33:53.912Z,100737.31
2024-03-06T09:36:22.545Z,100738.19
2024-03-06T09:38:50.717Z,100744.34
2024-03-06T09:41:18.844Z,100740.78
2024-03-06T09:43:47.683Z,100742.50
2024-03-06T09:46:15.748Z,100742.50
2024-03-06T09:48:47.929Z,100738.91
2024-03-06T09:51:16.487Z,100730.13
2024-03-06T09:53:50.640Z,100735.47
2024-03-06T09:56:20.513Z,100737.97
2024-03-06T09:58:48.529Z,100737.03
2024-03-06T10:01:17.929Z,100738.75
2024-03-06T10:03:47.553Z,100733.44
2024-03-06T10:06:15.745Z,100735.19
2024-03-06T10:08:45.059Z,100737.84
2024-03-06T10:11:13.726Z,100744.81
2024-03-06T10:13:41.961Z,100735.19
2024-03-06T10:16:12.645Z,100743.22
2024-03-06T10:18:41.217Z,100745.81
2024-03-06T10:21:09.171Z,100749.28
2024-03-06T10:23:38.797Z,100750.19
2024-03-06T10:26:08.494Z,100742.28
2024-03-06T10:28:37.579Z,100746.03
2024-03-06T10:31:10.002Z,100751.41
2024-03-06T10:33:39.195Z,100750.59
2024-03-06T10:36:07.530Z,100753.25
2024-03-06T10:38:37.091Z,100746.94
2024-03-06T10:41:07.842Z,100748.69
2024-03-06T10:43:36.493Z,100753.91
2024-03-06T10:46:05.960Z,100739.84
2024-03-06T10:48:36.169Z,100752.97
2024-03-06T10:51:04.552Z,100747.66
2024-03-06T10:53:32.681Z,100750.19
2024-03-06T10:56:01.128Z,100742.97
2024-03-06T10:58:29.169Z,100749.16
2024-03-06T11:00:59.457Z,100744.69
2024-03-06T11:03:28.184Z,100742.03
2024-03-06T11:05:56.403Z,100732.34
2024-03-06T11:08:26.870Z,100734.13
2024-03-06T11:10:55.356Z,100731.47
2024-03-06T11:13:27.705Z,100728.56
2024-03-06T11:15:58.899Z,100737.47
2024-03-06T11:18:30.480Z,100728.56
2024-03-06T11:21:03.293Z,100736.53
2024-03-06T11:23:31.987Z,100738.31
2024-03-06T11:26:05.091Z,100734.81
2024-03-06T11:28:35.004Z,100739.19
2024-03-06T11:31:03.893Z,100732.22
2024-03-06T11:33:32.373Z,100749.03
2024-03-06T11:36:19.854Z,100732.97
2024-03-06T11:38:57.712Z,100733.88
2024-03-06T11:41:26.962Z,100739.69
2024-03-06T11:43:57.156Z,100734.78
2024-03-06T11:46:42.317Z,100736.88
2024-03-06T11:49:25.695Z,100732.63
2024-03-06T11:51:54.693Z,100731.63
2024-03-06T11:54:30.509Z,100727.84
2024-03-06T11:56:59.650Z,100728.84
2024-03-06T11:59:29.145Z,100720.16
2024-03-06T12:01:58.864Z,100720.34
2024-03-06T12:04:27.110Z,100725.72
2024-03-06T12:07:00.555Z,100714.16
2024-03-06T12:09:28.832Z,100704.31
2024-03-06T12:11:58.823Z,100702.47
2024-03-06T12:14:28.117Z,100705.78
2024-03-06T12:16:57.767Z,100713.69
2024-03-06T12:19:29.533Z,100709.38
2024-03-06T12:22:03.960Z,100711.22
2024-03-06T12:24:33.848Z,100699.81
2024-03-06T12:27:03.149Z,100698.75
2024-03-06T12:29:32.618Z,100697.56
2024-03-06T12:32:01.448Z,100697.63
2024-03-06T12:34:31.562Z,100694.66
2024-03-06T12:37:14.651Z,100693.38
2024-03-06T12:39:43.984Z,100699.44
2024-03-06T12:42:13.537Z,100694.13
2024-03-06T12:44:42.271Z,100697.59
2024-03-06T12:47:10.864Z,100701.97
2024-03-06T12:49:39.277Z,100689.75
2024-03-06T12:52:07.545Z,100706.63
2024-03-06T12:54:36.072Z,100706.56
2024-03-06T12:57:04.260Z,100703.97
2024-03-06T12:59:32.373Z,100697.72
2024-03-06T13:02:00.914Z,100690.53
2024-03-06T13:04:29.069Z,100702.91
2024-03-06T13:06:57.216Z,100705.50
2024-03-06T13:09:26.727Z,100709.00
2024-03-06T13:11:55.838Z,100711.72
2024-03-06T13:14:24.160Z,100704.63
2024-03-06T13:16:52.686Z,100701.16
2024-03-06T13:19:20.850Z,100697.72
2024-03-06T13:21:49.038Z,100703.91
2024-03-06T13:24:20.916Z,100693.19
2024-03-06T13:26:49.181Z,100693.38
2024-03-06T13:29:18.192Z,100704.22
2024-03-06T13:31:46.850Z,100706.75
2024-03-06T13:34:15.034Z,100705.13
2024-03-06T13:36:43.235Z,100707.03
2024-03-06T13:39:11.610Z,100705.28
2024-03-06T13:41:39.918Z,100711.59
2024-03-06T13:44:09.461Z,100706.22
2024-03-06T13:46:37.934Z,100712.47
2024-03-06T13:49:06.567Z,100709.69
2024-03-06T13:51:34.796Z,100709.75
2024-03-06T13:54:03.774Z,100714.19
2024-03-06T13:56:32.002Z,100708.88
2024-03-06T13:59:00.334Z,100713.16
2024-03-06T14:01:28.779Z,100712.34
2024-03-06T14:03:57.068Z,100716.63
2024-03-06T14:06:25.093Z,100714.03
2024-03-06T14:08:53.632Z,100705.13
2024-03-06T14:11:21.929Z,100711.19
2024-03-06T14:13:50.237Z,100712.84
2024-03-06T14:16:18.716Z,100715.50
2024-03-06T14:18:46.920Z,100725.22
2024-03-06T14:21:15.568Z,100715.63
2024-03-06T14:23:44.608Z,100716.44
2024-03-06T14:26:12.946Z,100710.19
2024-03-06T14:28:40.997Z,100719.78
2024-03-06T14:31:11.554Z,100713.53
2024-03-06T14:33:41.230Z,100707.25
2024-03-06T14:36:09.299Z,100717.75
2024-03-06T14:38:37.720Z,100711.44
2024-03-06T14:41:07.628Z,100709.56
2024-03-06T14:43:37.255Z,100713.03
2024-03-06T14:46:09.985Z,100720.94
2024-03-06T14:48:38.064Z,100716.50
2024-03-06T14:51:06.775Z,100715.88
2024-03-06T14:53:34.883Z,100724.84
2024-03-06T14:56:03.440Z,100722.34
2024-03-06T14:58:32.385Z,100720.72
2024-03-06T15:01:01.167Z,100718.91
2024-03-06T15:03:29.957Z,100711.94
2024-03-06T15:05:58.498Z,100720.84
2024-03-06T15:08:26.814Z,100720.84
2024-03-06T15:10:55.452Z,100720.84
2024-03-06T15:13:24.298Z,100721.75
2024-03-06T15:15:52.400Z,100722.69
2024-03-06T15:18:20.637Z,100714.72
2024-03-06T15:20:49.219Z,100721.81
2024-03-06T15:23:17.828Z,100720.84
2024-03-06T15:25:46.020Z,100717.25
2024-03-06T15:28:14.549Z,100726.16
2024-03-06T15:30:42.915Z,100719.91
2024-03-06T15:33:11.186Z,100733.94
2024-03-06T15:35:39.823Z,100733.13
2024-03-06T15:38:08.049Z,100733.94
2024-03-06T15:40:37.439Z,100740.13
2024-03-06T15:43:06.100Z,100747.28
2024-03-06T15:45:34.200Z,100744.63
2024-03-06T15:48:04.554Z,100748.16
2024-03-06T15:50:35.090Z,100755.22
2024-03-06T15:53:04.694Z,100748.09
2024-03-06T15:55:34.018Z,100742.91
2024-03-06T15:58:03.182Z,100754.47
2024-03-06T16:00:31.524Z,100752.00
2024-03-06T16:02:59.992Z,100751.13
2024-03-06T16:05:28.554Z,100752.84
2024-03-06T16:08:04.607Z,100754.59
2024-03-06T16:10:35.723Z,100751.75
2024-03-06T16:13:04.834Z,100752.41
2024-03-06T16:15:33.145Z,100757.38
2024-03-06T16:18:01.563Z,100755.19
2024-03-06T16:20:29.854Z,100759.97
2024-03-06T16:22:58.573Z,100748.91
2024-03-06T16:25:27.114Z,100759.19
2024-03-06T16:27:55.257Z,100760.47
2024-03-06T16:30:24.866Z,100759.28
2024-03-06T16:32:53.522Z,100776.19
2024-03-06T16:35:21.720Z,100766.09
2024-03-06T16:37:50.888Z,100770.56
2024-03-06T16:40:19.404Z,100775.13
2024-03-06T16:42:47.468Z,100774.03
2024-03-06T16:45:15.632Z,100777.84
2024-03-06T16:47:44.141Z,100784.09
2024-03-06T16:50:13.485Z,100787.34
2024-03-06T16:52:42.709Z,100779.34
2024-03-06T16:55:11.019Z,100781.22
2024-03-06T16:57:39.608Z,100785.53
2024-03-06T17:00:09.618Z,100781.22
2024-03-06T17:02:38.279Z,100787.34
2024-03-06T17:05:07.515Z,100790.16
2024-03-06T17:07:36.047Z,100792.88
2024-03-06T17:10:04.690Z,100790.28
2024-03-06T17:12:32.779Z,100786.84
2024-03-06T17:15:01.259Z,100797.53
2024-03-06T17:17:29.515Z,100798.41
2024-03-06T17:19:57.962Z,100808.25
2024-03-06T17:22:26.056Z,100808.38
2024-03-06T17:24:55.324Z,100803.06
2024-03-06T17:27:24.657Z,100810.25
2024-03-06T17:29:53.360Z,100815.56
2024-03-06T17:32:23.135Z,100820.03
2024-03-06T17:34:51.905Z,100810.25
2024-03-06T17:37:20.030Z,100819.16
2024-03-06T17:39:48.560Z,100824.47
2024-03-06T17:42:16.682Z,100815.69
2024-03-06T17:44:45.171Z,100824.63
2024-03-06T17:47:13.352Z,100827.31
2024-03-06T17:49:41.842Z,100832.69
2024-03-06T17:52:09.884Z,100839.00
2024-03-06T17:54:38.837Z,100839.81
2024-03-06T17:57:07.083Z,100844.31
2024-03-06T17:59:35.955Z,100846.91
2024-03-06T18:02:04.561Z,100853.34
2024-03-06T18:04:33.426Z,100852.56
2024-03-06T18:07:01.609Z,100849.88
2024-03-06T18:09:30.169Z,100856.00
2024-03-06T18:11:58.449Z,100857.00
2024-03-06T18:14:27.046Z,100860.47
2024-03-06T18:16:55.241Z,100853.34
2024-03-06T18:19:23.618Z,100860.53
2024-03-06T18:21:52.696Z,100865.06
2024-03-06T18:24:21.696Z,100870.56
2024-03-06T18:26:50.007Z,100875.16
2024-03-06T18:29:19.026Z,100868.09
2024-03-06T18:31:47.397Z,100871.75
2024-03-06T18:34:15.907Z,100870.09
2024-03-06T18:36:43.944Z,100875.41
2024-03-06T18:39:12.379Z,100864.88
2024-03-06T18:41:40.480Z,100875.53
2024-03-06T18:44:09.173Z,100877.13
2024-03-06T18:46:39.305Z,100876.28
2024-03-06T18:49:08.110Z,100873.69
2024-03-06T18:51:36.276Z,100877.25
2024-03-06T18:54:05.383Z,100870.22
2024-03-06T18:56:37.019Z,100877.25
2024-03-06T18:59:05.564Z,100868.41
2024-03-06T19:01:34.420Z,100877.38
2024-03-06T19:04:03.534Z,100879.25
2024-03-06T19:06:32.388Z,100874.06
2024-03-06T19:09:00.868Z,100875.94
2024-03-06T19:11:29.149Z,100877.66
2024-03-06T19:13:58.415Z,100881.13
2024-03-06T19:16:26.572Z,100881.13
2024-03-06T19:18:55.394Z,100889.09
2024-03-06T19:21:23.775Z,100891.75
2024-03-06T19:23:52.214Z,100890.03
2024-03-06T19:26:20.399Z,100891.81
2024-03-06T19:28:49.940Z,100892.75
2024-03-06T19:31:19.651Z,100891.00
2024-03-06T19:33:48.172Z,100890.16
2024-03-06T19:36:16.352Z,100891.94
2024-03-06T19:38:45.187Z,100892.00
2024-03-06T19:41:14.029Z,100892.94
2024-03-06T19:43:42.645Z,100894.78
2024-03-06T19:46:10.646Z,100888.72
2024-03-06T19:48:39.590Z,100894.94
2024-03-06T19:51:09.450Z,100894.16
2024-03-06T19:53:38.735Z,100897.66
2024-03-06T19:56:07.095Z,100900.41
2024-03-06T19:58:35.833Z,100908.31
2024-03-06T20:01:04.067Z,100904.66
2024-03-06T20:03:32.577Z,100906.44
2024-03-06T20:06:00.760Z,100911.78
2024-03-06T20:08:29.385Z,100912.63
2024-03-06T20:10:57.946Z,100913.50
2024-03-06T20:13:26.092Z,100913.50
2024-03-06T20:15:54.535Z,100908.19
2024-03-06T20:18:23.272Z,100918.81
2024-03-06T20:20:52.280Z,100922.41
2024-03-06T20:23:20.363Z,100923.34
2024-03-06T20:25:48.831Z,100921.53
2024-03-06T20:28:17.116Z,100925.13
2024-03-06T20:30:47.035Z,100924.34
2024-03-06T20:33:15.231Z,100924.25
2024-03-06T20:35:43.797Z,100932.31
2024-03-06T20:38:17.050Z,100934.91
2024-03-06T20:40:48.081Z,100935.84
2024-03-06T20:43:16.428Z,100932.38
2024-03-06T20:45:45.384Z,100940.31
2024-03-06T20:48:14.341Z,100946.50
2024-03-06T20:50:42.947Z,100947.41
2024-03-06T20:53:12.829Z,100941.22
2024-03-06T20:55:42.132Z,100948.28
2024-03-06T20:58:10.390Z,100952.72
2024-03-06T21:00:38.829Z,100961.63
2024-03-06T21:03:07.188Z,100958.03
2024-03-06T21:05:36.207Z,100958.03
2024-03-06T21:08:08.097Z,100961.63
2024-03-06T21:10:38.086Z,100969.59
2024-03-06T21:13:07.696Z,100970.50
2024-03-06T21:15:36.979Z,100965.19
2024-03-06T21:18:06.142Z,100978.47
2024-03-06T21:20:34.834Z,100984.72
2024-03-06T21:23:03.136Z,100976.75
2024-03-06T21:25:32.431Z,100984.72
2024-03-06T21:28:00.594Z,100977.66
2024-03-06T21:30:29.143Z,100985.59
2024-03-06T21:32:57.316Z,100982.09
2024-03-06T21:35:26.739Z,100985.63
2024-03-06T21:37:54.845Z,100985.63
2024-03-06T21:40:23.406Z,100985.69
2024-03-06T21:42:51.721Z,100989.22
2024-03-06T21:45:20.265Z,100985.69
2024-03-06T21:47:48.478Z,100992.75
2024-03-06T21:50:17.052Z,100994.53
2024-03-06T21:52:45.193Z,100987.47
2024-03-06T21:55:13.674Z,100991.06
2024-03-06T21:57:41.762Z,100992.03
2024-03-06T22:00:10.459Z,100993.94
2024-03-06T22:02:38.850Z,100992.25
2024-03-06T22:05:08.438Z,100994.94
2024-03-06T22:07:36.629Z,100989.69
2024-03-06T22:10:09.205Z,100996.81
2024-03-06T22:12:37.425Z,100993.28
2024-03-06T22:15:06.676Z,100995.94
2024-03-06T22:17:34.866Z,100995.94
2024-03-06T22:20:04.171Z,100999.50
2024-03-06T22:22:32.377Z,100997.78
2024-03-06T22:25:01.321Z,100995.13
2024-03-06T22:27:29.480Z,100993.38
2024-03-06T22:29:58.066Z,101002.28
2024-03-06T22:32:26.260Z,101002.28
2024-03-06T22:34:54.753Z,100995.19
2024-03-06T22:37:22.890Z,100992.56
2024-03-06T22:39:51.460Z,100999.63
2024-03-06T22:42:19.749Z,100991.72
2024-03-06T22:44:48.308Z,100993.44
2024-03-06T22:47:16.751Z,101000.53
2024-03-06T22:49:45.446Z,100998.81
2024-03-06T22:52:13.546Z,100997.94
2024-03-06T22:54:42.406Z,100990.91
2024-03-06T22:57:10.506Z,100996.22
2024-03-06T22:59:39.257Z,100996.22
2024-03-06T23:02:08.939Z,100998.00
2024-03-06T23:04:41.129Z,101005.97
2024-03-06T23:07:09.212Z,100998.88
2024-03-06T23:09:38.025Z,101002.44
2024-03-06T23:12:06.401Z,100998.97
2024-03-06T23:14:37.649Z,100996.25
2024-03-06T23:17:06.841Z,100988.34
2024-03-06T23:19:35.373Z,100983.03
2024-03-06T23:22:04.191Z,100987.47
2024-03-06T23:24:33.152Z,100984.88
2024-03-06T23:27:01.187Z,100978.69
2024-03-06T23:29:29.655Z,100989.31
2024-03-06T23:31:57.739Z,100976.91
2024-03-06T23:34:26.099Z,100979.56
2024-03-06T23:36:54.098Z,100976.97
2024-03-06T23:39:23.045Z,100963.66
2024-03-06T23:41:51.808Z,100966.31
2024-03-06T23:44:21.016Z,100969.84
2024-03-06T23:46:49.063Z,100973.38
2024-03-06T23:49:17.600Z,100976.97
2024-03-06T23:51:50.543Z,100968.97
2024-03-06T23:54:20.568Z,100968.97
2024-03-06T23:56:48.874Z,100966.31
2024-03-06T23:59:17.534Z,100970.78
